LavenderCAM.net
Leatherhead Weather
 
Leatherhead Weather
 
 





Aviation weather for

London Heathrow (EGLL) and London Gatwick (EGKK)



London Heathrow (EGLL) METAR / Surface Actual
London / Heathrow Airport, United Kingdom (EGLL) 51-29N 000-27W 0M
May 21, 2019 - 05:50 AM EDT / 2019.05.21 0950 UTC
Wind: from the NW (310 degrees) at 8 MPH (7 KT) (direction variable):0
Visibility: greater than 7 mile(s):0
Temperature: 62 F (17 C)
Dew Point: 44 F (7 C)
Relative Humidity: 51%
Pressure (altimeter): 30.06 in. Hg (1018 hPa)
ob: EGLL 210950Z AUTO 31007KT 260V040 9999 NCD 17/07 Q1018 NOSIG
cycle: 10
London Heathrow (EGLL) TAF / Forecast
2019/05/21 06:09
TAF EGLL 210500Z 2106/2212 33008KT 9999 SCT045


London Gatwick (EGKK) METAR / Surface Actual
London / Gatwick Airport, United Kingdom (EGKK) 51-09N 000-11W 0M
May 21, 2019 - 05:50 AM EDT / 2019.05.21 0950 UTC
Wind: from the NW (310 degrees) at 9 MPH (8 KT) (direction variable):0
Visibility: greater than 7 mile(s):0
Temperature: 62 F (17 C)
Dew Point: 44 F (7 C)
Relative Humidity: 51%
Pressure (altimeter): 30.06 in. Hg (1018 hPa)
ob: EGKK 210950Z 31008KT 270V340 CAVOK 17/07 Q1018
cycle: 10
London Gatwick (EGKK) TAF / Forecast
2019/05/21 06:09
TAF EGKK 210455Z 2106/2212 32007KT 9999 FEW045 PROB30 2200/2206 8000